createdAt,value
2019-01-22T00:05:31.879Z,14.85
2019-01-22T00:11:42.104Z,16.15
2019-01-22T00:17:34.882Z,14.55
2019-01-22T00:44:25.350Z,13.15
2019-01-22T00:47:38.274Z,14.20
2019-01-22T00:50:30.216Z,13.62
2019-01-22T00:56:28.115Z,13.40
2019-01-22T01:05:01.837Z,13.32
2019-01-22T01:35:26.175Z,12.20
2019-01-22T01:44:16.231Z,12.40
2019-01-22T01:53:09.124Z,12.28
2019-01-22T01:56:09.819Z,11.85
2019-01-22T02:01:35.986Z,11.48
2019-01-22T02:04:27.779Z,12.35
2019-01-22T02:07:14.538Z,11.78
2019-01-22T02:13:04.858Z,10.40
2019-01-22T02:16:26.955Z,12.90
2019-01-22T02:40:57.508Z,12.15
2019-01-22T02:47:16.591Z,11.48
2019-01-22T02:52:57.303Z,11.35
2019-01-22T03:01:50.032Z,11.03
2019-01-22T03:04:35.081Z,11.43
2019-01-22T03:07:15.773Z,10.95
2019-01-22T03:29:01.195Z,11.10
2019-01-22T04:04:49.157Z,11.55
2019-01-22T04:16:45.101Z,11.50
2019-01-22T04:23:00.066Z,12.35
2019-01-22T04:31:54.760Z,12.40
2019-01-22T04:40:48.229Z,11.35
2019-01-22T04:43:56.571Z,12.18
2019-01-22T04:56:08.190Z,9.98
2019-01-22T05:01:38.915Z,10.25
2019-01-22T05:07:31.420Z,11.50
2019-01-22T05:19:17.488Z,11.10
2019-01-22T05:25:43.171Z,11.38
2019-01-22T05:28:31.306Z,10.72
2019-01-22T05:43:14.671Z,10.75
2019-01-22T06:15:57.300Z,8.93
2019-01-22T06:18:44.218Z,9.70
2019-01-22T06:21:31.484Z,9.78
2019-01-22T06:24:18.679Z,8.03
2019-01-22T06:27:08.392Z,9.20
2019-01-22T06:29:55.337Z,9.08
2019-01-22T06:32:26.334Z,10.70
2019-01-22T06:38:22.725Z,10.25
2019-01-22T06:41:10.370Z,8.35
2019-01-22T06:49:58.506Z,9.05
2019-01-22T06:52:36.246Z,9.93
2019-01-22T06:55:23.185Z,9.38
2019-01-22T06:58:14.331Z,7.85
2019-01-22T07:00:49.080Z,10.90
2019-01-22T07:03:36.098Z,25.85
2019-01-22T07:06:23.105Z,22.27
2019-01-22T07:11:51.947Z,21.75
2019-01-22T07:14:38.890Z,19.25
2019-01-22T07:17:25.824Z,14.05
2019-01-22T07:20:12.801Z,9.68
2019-01-22T07:23:04.929Z,10.72
2019-01-22T07:25:53.679Z,12.40
2019-01-22T07:34:32.748Z,11.35
2019-01-22T07:37:20.396Z,10.03
2019-01-22T07:40:07.429Z,9.10
2019-01-22T07:42:56.214Z,8.70
2019-01-22T07:45:43.182Z,6.92
2019-01-22T07:48:30.870Z,7.17
2019-01-22T07:51:17.781Z,8.00
2019-01-22T07:57:12.977Z,6.40
2019-01-22T08:00:02.350Z,6.05
2019-01-22T08:02:48.691Z,5.67
2019-01-22T08:05:55.410Z,6.70
2019-01-22T08:08:45.984Z,6.08
2019-01-22T08:11:32.912Z,6.83
2019-01-22T08:14:21.862Z,5.92
2019-01-22T08:17:08.857Z,5.50
2019-01-22T08:19:55.781Z,5.97
2019-01-22T08:22:42.775Z,6.20
2019-01-22T08:25:31.489Z,6.08
2019-01-22T08:28:18.383Z,5.87
2019-01-22T08:31:05.342Z,6.05
2019-01-22T08:33:52.334Z,7.17
2019-01-22T08:36:39.300Z,5.40
2019-01-22T08:39:26.279Z,5.90
2019-01-22T08:42:13.159Z,6.28
2019-01-22T08:45:01.205Z,5.53
2019-01-22T08:47:48.631Z,5.90
2019-01-22T08:50:35.538Z,6.60
2019-01-22T08:53:24.854Z,5.45
2019-01-22T08:56:00.628Z,6.30
2019-01-22T08:58:47.562Z,5.05
2019-01-22T09:01:35.639Z,5.30
2019-01-22T09:04:23.166Z,5.10
2019-01-22T09:07:10.062Z,5.45
2019-01-22T09:09:56.979Z,5.25
2019-01-22T09:12:43.918Z,5.25
2019-01-22T09:15:30.862Z,5.47
2019-01-22T09:18:17.741Z,5.62
2019-01-22T09:21:04.665Z,6.05
2019-01-22T09:23:51.547Z,6.28
2019-01-22T09:26:22.952Z,5.78
2019-01-22T09:29:09.818Z,6.47
2019-01-22T09:31:51.363Z,5.30
2019-01-22T09:34:38.249Z,5.97
2019-01-22T09:37:25.163Z,6.37
2019-01-22T09:39:52.967Z,6.25
2019-01-22T09:42:20.799Z,6.47
2019-01-22T09:44:48.631Z,6.00
2019-01-22T09:47:16.470Z,6.35
2019-01-22T09:49:44.297Z,6.30
2019-01-22T09:52:12.118Z,6.05
2019-01-22T09:54:39.946Z,5.80
2019-01-22T09:57:07.789Z,5.75
2019-01-22T09:59:35.603Z,6.85
2019-01-22T10:02:03.472Z,5.50
2019-01-22T10:04:31.282Z,7.62
2019-01-22T10:07:18.110Z,6.15
2019-01-22T10:09:45.955Z,7.60
2019-01-22T10:12:13.958Z,6.28
2019-01-22T10:14:41.827Z,7.28
2019-01-22T10:17:09.693Z,7.55
2019-01-22T10:19:37.529Z,7.03
2019-01-22T10:22:05.571Z,7.35
2019-01-22T10:24:52.461Z,7.45
2019-01-22T10:27:20.330Z,7.10
2019-01-22T10:29:48.187Z,7.67
2019-01-22T10:34:49.417Z,7.10
2019-01-22T10:37:17.266Z,7.35
2019-01-22T10:39:45.094Z,7.40
2019-01-22T10:42:12.977Z,8.50
2019-01-22T10:44:40.877Z,7.95
2019-01-22T10:47:08.815Z,8.83
2019-01-22T10:49:36.637Z,7.78
2019-01-22T10:52:04.571Z,7.67
2019-01-22T10:54:32.428Z,8.20
2019-01-22T10:57:00.251Z,8.95
2019-01-22T10:59:28.095Z,8.85
2019-01-22T11:01:55.986Z,8.68
2019-01-22T11:04:23.825Z,9.60
2019-01-22T11:06:51.651Z,9.65
2019-01-22T11:09:19.522Z,9.73
2019-01-22T11:11:47.349Z,10.40
2019-01-22T11:14:15.194Z,10.10
2019-01-22T11:16:43.009Z,10.23
2019-01-22T11:19:11.013Z,10.20
2019-01-22T11:21:38.856Z,10.20
2019-01-22T11:24:06.732Z,9.48
2019-01-22T11:26:34.548Z,8.70
2019-01-22T11:29:02.364Z,11.40
2019-01-22T11:31:30.215Z,9.40
2019-01-22T11:33:58.066Z,10.00
2019-01-22T11:36:25.954Z,10.20
2019-01-22T11:38:53.819Z,9.40
2019-01-22T11:43:55.137Z,9.18
2019-01-22T11:46:22.950Z,9.85
2019-01-22T11:48:50.760Z,8.68
2019-01-22T11:51:18.616Z,10.38
2019-01-22T11:53:46.426Z,11.30
2019-01-22T11:56:14.452Z,10.40
2019-01-22T11:58:42.261Z,10.03
2019-01-22T12:01:10.105Z,9.90
2019-01-22T12:03:37.975Z,10.08
2019-01-22T12:06:05.805Z,9.03
2019-01-22T12:08:33.605Z,9.40
2019-01-22T12:11:01.441Z,9.25
2019-01-22T12:13:29.286Z,10.40
2019-01-22T12:15:57.144Z,10.08
2019-01-22T12:18:25.028Z,9.33
2019-01-22T12:20:52.837Z,9.65
2019-01-22T12:23:20.661Z,9.78
2019-01-22T12:25:48.457Z,9.95
2019-01-22T12:28:16.622Z,10.32
2019-01-22T12:30:44.431Z,10.98
2019-01-22T12:33:12.282Z,9.88
2019-01-22T12:35:40.111Z,10.30
2019-01-22T12:38:08.004Z,11.15
2019-01-22T12:40:35.846Z,11.40
2019-01-22T12:45:57.861Z,12.03
2019-01-22T12:48:25.669Z,10.63
2019-01-22T12:50:53.474Z,10.88
2019-01-22T12:53:21.317Z,11.93
2019-01-22T12:55:49.114Z,11.43
2019-01-22T12:58:16.949Z,10.93
2019-01-22T13:00:44.827Z,11.30
2019-01-22T13:03:12.665Z,11.75
2019-01-22T13:08:58.638Z,10.50
2019-01-22T13:11:26.445Z,9.63
2019-01-22T13:13:54.283Z,10.75
2019-01-22T13:16:22.353Z,9.95
2019-01-22T13:18:50.209Z,10.65
2019-01-22T13:21:18.042Z,10.43
2019-01-22T13:23:45.906Z,10.93
2019-01-22T13:26:13.692Z,11.10
2019-01-22T13:28:41.526Z,10.25
2019-01-22T13:31:09.376Z,11.95
2019-01-22T13:33:37.172Z,10.58
2019-01-22T13:38:39.994Z,11.68
2019-01-22T13:41:07.867Z,11.83
2019-01-22T13:43:35.682Z,12.78
2019-01-22T13:46:03.525Z,12.18
2019-01-22T13:48:31.354Z,13.08
2019-01-22T13:50:59.209Z,13.25
2019-01-22T13:53:27.022Z,13.45
2019-01-22T13:55:54.893Z,13.50
2019-01-22T13:58:22.861Z,13.00
2019-01-22T14:00:50.714Z,13.08
2019-01-22T14:03:18.564Z,10.80
2019-01-22T14:05:46.433Z,12.30
2019-01-22T14:08:14.266Z,11.05
2019-01-22T14:10:42.116Z,11.50
2019-01-22T14:13:09.929Z,10.75
2019-01-22T14:15:38.917Z,11.03
2019-01-22T14:18:07.136Z,11.75
2019-01-22T14:20:34.986Z,12.63
2019-01-22T14:23:02.827Z,11.57
2019-01-22T14:25:30.722Z,13.03
2019-01-22T14:27:58.589Z,12.03
2019-01-22T14:30:27.929Z,11.25
2019-01-22T14:32:55.769Z,11.00
2019-01-22T14:35:23.577Z,10.90
2019-01-22T14:37:51.409Z,9.18
2019-01-22T14:40:19.244Z,9.95
2019-01-22T14:42:47.116Z,9.75
2019-01-22T14:45:15.252Z,10.70
2019-01-22T14:47:43.085Z,7.83
2019-01-22T14:53:19.869Z,7.35
2019-01-22T14:55:47.668Z,6.92
2019-01-22T14:58:15.629Z,6.95
2019-01-22T15:00:43.449Z,6.97
2019-01-22T15:03:11.319Z,6.50
2019-01-22T15:05:39.130Z,6.47
2019-01-22T15:08:06.992Z,6.25
2019-01-22T15:10:34.837Z,7.83
2019-01-22T15:13:02.694Z,7.00
2019-01-22T15:15:31.013Z,6.65
2019-01-22T15:17:58.868Z,6.97
2019-01-22T15:20:26.837Z,8.03
2019-01-22T15:22:54.642Z,7.25
2019-01-22T15:25:22.482Z,7.53
2019-01-22T15:27:50.283Z,7.47
2019-01-22T15:30:37.186Z,7.40
2019-01-22T15:33:05.736Z,8.55
2019-01-22T15:35:33.789Z,7.55
2019-01-22T15:38:01.647Z,8.88
2019-01-22T15:40:29.869Z,9.15
2019-01-22T15:42:57.699Z,8.53
2019-01-22T15:48:19.833Z,8.40
2019-01-22T15:53:28.447Z,9.35
2019-01-22T15:55:56.277Z,9.73
2019-01-22T15:58:24.086Z,11.03
2019-01-22T16:00:51.901Z,9.25
2019-01-22T16:03:19.754Z,9.55
2019-01-22T16:05:47.633Z,10.93
2019-01-22T16:08:15.453Z,10.95
2019-01-22T16:10:43.290Z,10.13
2019-01-22T16:13:11.089Z,10.93
2019-01-22T16:15:38.949Z,11.50
2019-01-22T16:18:06.834Z,10.68
2019-01-22T16:20:34.835Z,11.15
2019-01-22T16:23:02.696Z,12.78
2019-01-22T16:25:30.606Z,10.50
2019-01-22T16:27:58.439Z,9.75
2019-01-22T16:30:26.898Z,10.75
2019-01-22T16:32:54.766Z,10.15
2019-01-22T16:35:23.279Z,10.28
2019-01-22T16:37:51.181Z,12.60
2019-01-22T16:40:18.966Z,11.25
2019-01-22T16:42:46.990Z,11.63
2019-01-22T16:45:16.627Z,12.70
2019-01-22T16:47:44.476Z,11.28
2019-01-22T16:53:20.983Z,12.47
2019-01-22T16:55:48.864Z,12.37
2019-01-22T16:58:16.728Z,13.93
2019-01-22T17:00:44.565Z,12.63
2019-01-22T17:03:12.438Z,11.83
2019-01-22T17:05:40.435Z,11.40
2019-01-22T17:08:08.314Z,13.55
2019-01-22T17:10:36.547Z,12.33
2019-01-22T17:15:58.331Z,12.45
2019-01-22T17:18:26.221Z,13.18
2019-01-22T17:20:54.057Z,13.48
2019-01-22T17:23:21.880Z,12.07
2019-01-22T17:25:49.732Z,12.25
2019-01-22T17:28:17.639Z,12.73
2019-01-22T17:30:45.569Z,12.93
2019-01-22T17:33:32.375Z,12.53
2019-01-22T17:36:00.270Z,13.05
2019-01-22T17:38:28.111Z,11.83
2019-01-22T17:40:56.019Z,11.70
2019-01-22T17:43:23.846Z,11.60
2019-01-22T17:45:51.737Z,11.48
2019-01-22T17:48:19.570Z,12.70
2019-01-22T17:50:47.494Z,12.00
2019-01-22T17:53:15.345Z,12.53
2019-01-22T17:55:43.410Z,13.18
2019-01-22T17:58:11.229Z,12.55
2019-01-22T18:03:14.309Z,13.75
2019-01-22T18:05:42.584Z,13.22
2019-01-22T18:08:10.432Z,13.20
2019-01-22T18:10:38.356Z,12.65
2019-01-22T18:13:06.202Z,12.90
2019-01-22T18:15:34.147Z,14.98
2019-01-22T18:18:04.176Z,13.95
2019-01-22T18:20:44.129Z,14.33
2019-01-22T18:23:01.716Z,16.15
2019-01-22T18:25:29.594Z,13.35
2019-01-22T18:28:16.517Z,13.40
2019-01-22T18:30:44.497Z,12.95
2019-01-22T18:33:12.835Z,13.98
2019-01-22T18:35:41.742Z,13.18
2019-01-22T18:38:10.032Z,13.48
2019-01-22T18:40:38.255Z,12.30
2019-01-22T18:54:13.878Z,15.15
2019-01-22T18:57:01.138Z,13.70
2019-01-22T18:59:29.038Z,13.53
2019-01-22T19:01:57.018Z,14.30
2019-01-22T19:04:27.294Z,15.32
2019-01-22T19:07:14.312Z,12.88
2019-01-22T19:09:42.223Z,13.60
2019-01-22T19:12:10.123Z,14.30
2019-01-22T19:14:38.593Z,14.25
2019-01-22T19:17:06.752Z,13.18
2019-01-22T19:27:58.217Z,13.25
2019-01-22T19:30:28.673Z,16.45
2019-01-22T19:32:57.016Z,14.35
2019-01-22T19:35:25.036Z,13.90
2019-01-22T19:37:52.898Z,14.20
2019-01-22T19:42:56.561Z,15.70
2019-01-22T19:45:25.865Z,14.07
2019-01-22T19:48:12.851Z,14.47
2019-01-22T19:53:27.851Z,14.40
2019-01-22T19:55:55.854Z,17.95
2019-01-22T19:58:23.736Z,14.98
2019-01-22T20:00:51.998Z,15.00
2019-01-22T20:03:40.018Z,16.62
2019-01-22T20:06:08.000Z,15.15
2019-01-22T20:08:35.968Z,16.17
2019-01-22T20:11:16.039Z,15.43
2019-01-22T20:13:33.622Z,16.20
2019-01-22T20:16:01.631Z,16.55
2019-01-22T20:18:29.497Z,15.23
2019-01-22T20:21:09.890Z,15.23
2019-01-22T20:23:27.378Z,15.13
2019-01-22T20:25:58.043Z,17.00
2019-01-22T20:28:25.946Z,15.45
2019-01-22T20:30:54.060Z,15.30
2019-01-22T20:33:25.073Z,16.15
2019-01-22T20:35:55.113Z,16.27
2019-01-22T20:38:23.437Z,16.50
2019-01-22T20:43:47.846Z,17.12
2019-01-22T20:49:10.415Z,19.73
2019-01-22T20:51:38.298Z,18.50
2019-01-22T20:54:06.297Z,20.05
2019-01-22T20:56:34.262Z,21.97
2019-01-22T20:59:02.260Z,17.32
2019-01-22T21:01:30.267Z,18.90
2019-01-22T21:04:01.046Z,19.12
2019-01-22T21:06:29.066Z,17.62
2019-01-22T21:14:38.643Z,15.55
2019-01-22T21:20:14.935Z,15.03
2019-01-22T21:25:49.058Z,16.48
2019-01-22T21:31:24.583Z,15.00
2019-01-22T21:37:00.050Z,15.28
2019-01-22T21:39:28.007Z,16.48
2019-01-22T21:47:38.308Z,16.57
2019-01-22T21:50:06.677Z,18.95
2019-01-22T21:52:34.589Z,17.23
2019-01-22T21:55:02.872Z,15.25
2019-01-22T21:57:30.837Z,16.70
2019-01-22T21:59:58.730Z,17.02
2019-01-22T22:02:48.005Z,14.25
2019-01-22T22:05:18.885Z,15.03
2019-01-22T22:10:20.446Z,16.23
2019-01-22T22:12:48.756Z,17.30
2019-01-22T22:15:17.727Z,17.32
2019-01-22T22:17:48.034Z,15.05
2019-01-22T22:20:16.097Z,16.17
2019-01-22T22:22:46.533Z,15.15
2019-01-22T22:25:36.607Z,17.05
2019-01-22T22:28:15.126Z,15.80
2019-01-22T22:39:41.598Z,15.60
2019-01-22T22:42:11.953Z,17.50
2019-01-22T22:45:13.027Z,18.02
2019-01-22T22:47:29.830Z,15.50
2019-01-22T22:49:57.766Z,16.07
2019-01-22T22:52:25.739Z,16.25
2019-01-22T22:57:28.978Z,17.90
2019-01-22T23:05:43.133Z,17.65
2019-01-22T23:11:05.336Z,17.23
2019-01-22T23:19:10.729Z,15.28
2019-01-22T23:21:58.233Z,18.27
2019-01-22T23:27:17.189Z,15.40
2019-01-22T23:32:34.690Z,16.77
2019-01-22T23:35:21.563Z,15.72
2019-01-22T23:38:10.012Z,18.65
2019-01-22T23:40:39.009Z,16.17
2019-01-22T23:46:28.634Z,14.87
2019-01-22T23:49:06.341Z,16.30
2019-01-22T23:54:14.696Z,15.10
2019-01-22T23:56:43.055Z,15.53
2019-01-22T23:59:16.843Z,14.70
